createdAt,value
2023-04-29T00:03:45.576Z,96441.00
2023-04-29T00:09:06.723Z,96431.09
2023-04-29T00:14:27.286Z,96433.72
2023-04-29T00:19:48.205Z,96435.56
2023-04-29T00:25:09.330Z,96434.59
2023-04-29T00:30:32.148Z,96444.81
2023-04-29T00:35:53.135Z,96440.03
2023-04-29T00:41:13.835Z,96443.47
2023-04-29T00:46:35.009Z,96438.91
2023-04-29T00:51:57.944Z,96443.69
2023-04-29T00:57:20.188Z,96441.53
2023-04-29T01:02:42.355Z,96439.34
2023-04-29T01:08:09.282Z,96444.06
2023-04-29T01:13:37.758Z,96436.59
2023-04-29T01:19:07.413Z,96431.53
2023-04-29T01:24:29.287Z,96434.38
2023-04-29T01:30:02.447Z,96430.19
2023-04-29T01:35:37.203Z,96435.91
2023-04-29T01:41:17.256Z,96430.69
2023-04-29T01:46:43.178Z,96430.91
2023-04-29T01:52:04.343Z,96431.78
2023-04-29T01:57:26.323Z,96431.28
2023-04-29T02:02:53.349Z,96436.69
2023-04-29T02:08:23.045Z,96436.69
2023-04-29T02:13:44.078Z,96441.91
2023-04-29T02:19:06.917Z,96433.88
2023-04-29T02:24:27.669Z,96433.88
2023-04-29T02:29:48.562Z,96436.78
2023-04-29T02:35:09.633Z,96432.91
2023-04-29T02:40:30.134Z,96434.63
2023-04-29T02:45:52.506Z,96423.91
2023-04-29T02:51:13.490Z,96417.22
2023-04-29T02:56:34.705Z,96413.81
2023-04-29T03:01:55.460Z,96414.47
2023-04-29T03:07:17.494Z,96420.88
2023-04-29T03:12:39.539Z,96420.66
2023-04-29T03:18:01.924Z,96413.88
2023-04-29T03:23:23.136Z,96416.88
2023-04-29T03:28:43.790Z,96409.81
2023-04-29T03:34:04.480Z,96412.25
2023-04-29T03:39:32.627Z,96409.38
2023-04-29T03:44:53.440Z,96410.03
2023-04-29T03:50:14.085Z,96401.91
2023-04-29T03:55:35.625Z,96406.28
2023-04-29T04:00:56.467Z,96417.28
2023-04-29T04:06:24.740Z,96410.78
2023-04-29T04:11:47.116Z,96410.59
2023-04-29T04:17:08.700Z,96413.09
2023-04-29T04:22:30.404Z,96420.16
2023-04-29T04:28:07.468Z,96417.34
2023-04-29T04:33:49.014Z,96425.78
2023-04-29T04:39:10.078Z,96423.28
2023-04-29T04:44:31.571Z,96414.34
2023-04-29T04:49:58.768Z,96425.28
2023-04-29T04:55:20.592Z,96419.00
2023-04-29T05:00:45.919Z,96417.63
2023-04-29T05:06:06.604Z,96413.38
2023-04-29T05:11:27.834Z,96420.75
2023-04-29T05:17:05.508Z,96418.03
2023-04-29T05:22:26.879Z,96421.25
2023-04-29T05:27:47.844Z,96424.06
2023-04-29T05:33:12.285Z,96426.75
2023-04-29T05:38:33.885Z,96428.41
2023-04-29T05:43:57.751Z,96434.34
2023-04-29T05:49:18.470Z,96430.41
2023-04-29T05:54:39.294Z,96440.38
2023-04-29T06:00:01.154Z,96438.44
2023-04-29T06:05:22.322Z,96435.31
2023-04-29T06:11:02.986Z,96443.34
2023-04-29T06:16:23.718Z,96452.00
2023-04-29T06:21:44.708Z,96442.34
2023-04-29T06:27:05.793Z,96450.44
2023-04-29T06:32:26.916Z,96445.44
2023-04-29T06:37:47.904Z,96454.44
2023-04-29T06:43:28.023Z,96443.19
2023-04-29T06:49:14.706Z,96438.59
2023-04-29T06:54:35.722Z,96442.56
2023-04-29T06:59:56.618Z,96444.19
2023-04-29T07:05:19.678Z,96446.97
2023-04-29T07:10:41.766Z,96441.34
2023-04-29T07:16:02.462Z,96434.41
2023-04-29T07:21:23.223Z,96431.38
2023-04-29T07:26:47.820Z,96432.06
2023-04-29T07:32:10.080Z,96432.22
2023-04-29T07:37:31.902Z,96436.97
2023-04-29T07:42:52.609Z,96440.88
2023-04-29T07:48:13.551Z,96443.81
2023-04-29T07:53:34.814Z,96442.78
2023-04-29T07:58:55.799Z,96443.63
2023-04-29T08:04:16.617Z,96442.50
2023-04-29T08:09:43.151Z,96444.22
2023-04-29T08:15:06.758Z,96436.25
2023-04-29T08:20:29.050Z,96451.94
2023-04-29T08:25:52.256Z,96461.66
2023-04-29T08:31:22.436Z,96456.78
2023-04-29T08:36:43.356Z,96463.41
2023-04-29T08:42:14.184Z,96463.34
2023-04-29T08:47:37.184Z,96456.91
2023-04-29T08:52:57.943Z,96462.75
2023-04-29T08:58:19.005Z,96452.06
2023-04-29T09:04:02.066Z,96454.25
2023-04-29T09:09:24.870Z,96460.44
2023-04-29T09:14:45.539Z,96455.44
2023-04-29T09:20:30.125Z,96466.84
2023-04-29T09:25:57.700Z,96465.25
2023-04-29T09:31:28.382Z,96467.25
2023-04-29T09:36:57.035Z,96487.53
2023-04-29T09:42:17.895Z,96484.06
2023-04-29T09:47:38.497Z,96491.28
2023-04-29T09:53:00.257Z,96506.06
2023-04-29T09:58:40.296Z,96506.84
2023-04-29T10:04:02.104Z,96504.25
2023-04-29T10:09:24.133Z,96494.75
2023-04-29T10:14:57.931Z,96487.72
2023-04-29T10:20:25.963Z,96501.25
2023-04-29T10:25:48.666Z,96533.53
2023-04-29T10:31:10.488Z,96544.63
2023-04-29T10:36:32.384Z,96536.94
2023-04-29T10:41:54.364Z,96536.19
2023-04-29T10:47:21.571Z,96532.06
2023-04-29T10:52:52.471Z,96528.97
2023-04-29T10:58:43.451Z,96520.88
2023-04-29T11:04:05.117Z,96513.13
2023-04-29T11:09:28.107Z,96524.38
2023-04-29T11:14:52.353Z,96528.84
2023-04-29T11:20:16.031Z,96528.53
2023-04-29T11:25:38.807Z,96533.63
2023-04-29T11:31:00.554Z,96540.09
2023-04-29T11:36:21.464Z,96557.03
2023-04-29T11:41:43.069Z,96563.13
2023-04-29T11:47:07.253Z,96561.53
2023-04-29T11:52:28.866Z,96559.59
2023-04-29T11:57:51.510Z,96563.06
2023-04-29T12:03:16.674Z,96562.84
2023-04-29T12:08:37.424Z,96561.31
2023-04-29T12:13:58.724Z,96572.28
2023-04-29T12:19:19.800Z,96559.09
2023-04-29T12:24:41.779Z,96557.41
2023-04-29T12:30:07.085Z,96553.56
2023-04-29T12:35:28.087Z,96559.69
2023-04-29T12:40:49.183Z,96560.34
2023-04-29T12:46:12.875Z,96570.47
2023-04-29T12:51:34.968Z,96577.91
2023-04-29T12:56:55.811Z,96598.19
2023-04-29T13:02:16.509Z,96607.75
2023-04-29T13:07:39.102Z,96596.63
2023-04-29T13:12:59.988Z,96582.72
2023-04-29T13:18:21.502Z,96584.03
2023-04-29T13:23:42.302Z,96590.06
2023-04-29T13:29:03.183Z,96599.25
2023-04-29T13:34:24.321Z,96601.72
2023-04-29T13:39:47.274Z,96601.88
2023-04-29T13:45:08.940Z,96616.13
2023-04-29T13:50:57.322Z,96614.66
2023-04-29T14:06:58.468Z,96609.88
2023-04-29T14:12:19.279Z,96618.06
2023-04-29T14:17:40.029Z,96618.56
2023-04-29T14:23:00.936Z,96615.81
2023-04-29T14:28:21.945Z,96615.66
2023-04-29T14:33:42.540Z,96628.25
2023-04-29T14:39:04.384Z,96635.28
2023-04-29T14:44:24.895Z,96634.66
2023-04-29T14:49:46.025Z,96643.63
2023-04-29T14:55:07.936Z,96644.28
2023-04-29T15:00:28.681Z,96644.47
2023-04-29T15:05:50.740Z,96644.13
2023-04-29T15:11:11.716Z,96659.88
2023-04-29T15:16:32.650Z,96658.25
2023-04-29T15:21:53.451Z,96669.84
2023-04-29T15:27:16.261Z,96681.28
2023-04-29T15:32:37.070Z,96674.50
2023-04-29T15:37:59.343Z,96681.84
2023-04-29T15:43:20.694Z,96689.53
2023-04-29T15:48:42.908Z,96691.16
2023-04-29T15:54:05.202Z,96704.44
2023-04-29T15:59:25.858Z,96712.09
2023-04-29T16:04:46.824Z,96709.59
2023-04-29T16:10:07.542Z,96722.03
2023-04-29T16:15:29.504Z,96723.16
2023-04-29T16:20:52.176Z,96733.44
2023-04-29T16:26:13.024Z,96739.94
2023-04-29T16:31:33.974Z,96752.66
2023-04-29T16:36:54.583Z,96766.50
2023-04-29T16:42:15.651Z,96766.44
2023-04-29T16:47:37.756Z,96778.88
2023-04-29T16:52:58.382Z,96781.47
2023-04-29T16:58:19.432Z,96794.78
2023-04-29T17:03:40.636Z,96798.28
2023-04-29T17:09:02.489Z,96804.81
2023-04-29T17:14:23.222Z,96813.25
2023-04-29T17:19:44.246Z,96817.97
2023-04-29T17:25:05.855Z,96826.56
2023-04-29T17:30:26.706Z,96838.88
2023-04-29T17:35:47.522Z,96847.91
2023-04-29T17:41:08.161Z,96858.66
2023-04-29T17:46:29.178Z,96873.47
2023-04-29T17:51:50.231Z,96871.25
2023-04-29T17:57:10.888Z,96889.06
2023-04-29T18:02:31.661Z,96899.41
2023-04-29T18:07:52.353Z,96902.19
2023-04-29T18:13:13.027Z,96923.91
2023-04-29T18:18:33.871Z,96915.97
2023-04-29T18:23:55.800Z,96923.38
2023-04-29T18:29:17.081Z,96938.34
2023-04-29T18:34:37.815Z,96941.50
2023-04-29T18:39:58.663Z,96950.03
2023-04-29T18:45:19.410Z,96963.63
2023-04-29T18:50:40.404Z,96964.19
2023-04-29T18:56:01.435Z,96967.59
2023-04-29T19:01:22.254Z,96967.91
2023-04-29T19:06:43.262Z,96981.59
2023-04-29T19:12:04.952Z,96990.69
2023-04-29T19:17:26.051Z,96985.75
2023-04-29T19:22:47.194Z,96992.59
2023-04-29T19:28:07.993Z,96993.56
2023-04-29T19:33:28.836Z,97002.91
2023-04-29T19:38:49.934Z,97001.22
2023-04-29T19:44:11.051Z,97011.91
2023-04-29T19:49:32.012Z,97011.09
2023-04-29T19:54:52.909Z,97006.84
2023-04-29T20:00:14.669Z,97006.00
2023-04-29T20:05:35.529Z,97009.03
2023-04-29T20:10:56.210Z,97005.19
2023-04-29T20:16:17.154Z,97008.50
2023-04-29T20:21:39.783Z,97005.75
2023-04-29T20:27:01.621Z,97012.06
2023-04-29T20:32:22.702Z,97016.44
2023-04-29T20:37:43.278Z,97010.94
2023-04-29T20:43:04.717Z,97018.34
2023-04-29T20:48:25.956Z,97019.88
2023-04-29T20:53:47.009Z,97018.22
2023-04-29T20:59:07.740Z,97024.25
2023-04-29T21:04:28.656Z,97030.72
2023-04-29T21:09:50.250Z,97028.25
2023-04-29T21:15:11.404Z,97034.28
2023-04-29T21:20:32.235Z,97042.63
2023-04-29T21:25:52.893Z,97053.09
2023-04-29T21:31:16.436Z,97044.72
2023-04-29T21:36:37.332Z,97047.88
2023-04-29T21:42:00.185Z,97045.56
2023-04-29T21:47:21.046Z,97047.44
2023-04-29T21:52:41.996Z,97056.75
2023-04-29T21:58:02.912Z,97057.56
2023-04-29T22:03:24.100Z,97051.91
2023-04-29T22:08:44.576Z,97063.00
2023-04-29T22:14:05.674Z,97063.75
2023-04-29T22:19:30.121Z,97071.72
2023-04-29T22:24:50.974Z,97073.69
2023-04-29T22:30:12.138Z,97069.59
2023-04-29T22:35:32.759Z,97073.44
2023-04-29T22:40:53.682Z,97082.13
2023-04-29T22:46:14.621Z,97083.13
2023-04-29T22:51:35.243Z,97078.63
2023-04-29T22:56:56.042Z,97078.00
2023-04-29T23:02:16.706Z,97082.50
2023-04-29T23:07:37.534Z,97089.09
2023-04-29T23:12:58.183Z,97093.13
2023-04-29T23:18:18.852Z,97086.47
2023-04-29T23:23:39.669Z,97098.06
2023-04-29T23:29:00.628Z,97095.88
2023-04-29T23:34:21.575Z,97106.31
2023-04-29T23:39:42.342Z,97100.25
2023-04-29T23:45:03.141Z,97102.13
2023-04-29T23:50:24.138Z,97099.81
2023-04-29T23:55:44.944Z,97106.53
